Time;durP1;ratioP1;P1;durP2;ratioP2;P2;SDS_P1;SDS_P2;PMS_P1;PMS_P2;Temp;Humidity;BMP_temperature;BMP_pressure;BME280_temperature;BME280_humidity;BME280_pressure;Samples;Min_cycle;Max_cycle;Signal;HPM_P1;HPM_P2
2021/04/28 00:02:01;;;;;;;13.88;10.30;;;23.80;57.80;;;;;;5052152;28;20033;-58
2021/04/28 00:04:27;;;;;;;13.20;10.02;;;23.70;57.70;;;;;;5034862;28;20132;-58
2021/04/28 00:06:53;;;;;;;12.90;10.32;;;23.70;57.70;;;;;;5060435;28;20033;-59
2021/04/28 00:09:19;;;;;;;12.25;9.20;;;23.70;57.70;;;;;;5071363;28;20044;-58
2021/04/28 00:11:45;;;;;;;12.07;9.30;;;23.70;57.70;;;;;;5071752;28;20048;-58
2021/04/28 00:14:12;;;;;;;10.20;9.20;;;23.70;57.70;;;;;;5053589;28;20036;-57
2021/04/28 00:16:38;;;;;;;13.52;8.57;;;23.70;57.70;;;;;;5037981;28;20045;-58
2021/04/28 00:19:05;;;;;;;11.00;8.05;;;23.70;57.70;;;;;;5053984;28;20071;-58
2021/04/28 00:21:31;;;;;;;11.55;8.07;;;23.70;57.70;;;;;;5071610;28;20040;-58
2021/04/28 00:23:58;;;;;;;11.18;7.88;;;23.70;57.70;;;;;;5071852;28;20559;-58
2021/04/28 00:26:24;;;;;;;11.10;7.65;;;23.70;57.70;;;;;;5071796;28;20079;-58
2021/04/28 00:28:50;;;;;;;10.75;7.55;;;23.80;57.70;;;;;;5053804;28;20211;-58
2021/04/28 00:31:16;;;;;;;8.77;6.72;;;23.70;57.70;;;;;;5052325;28;20036;-58
2021/04/28 00:33:42;;;;;;;9.32;7.00;;;23.70;57.70;;;;;;5070627;28;20033;-58
2021/04/28 00:36:09;;;;;;;10.48;7.13;;;23.70;57.70;;;;;;5052091;28;20045;-57
2021/04/28 00:38:35;;;;;;;7.18;6.45;;;23.70;57.70;;;;;;5071073;28;20448;-58
2021/04/28 00:41:06;;;;;;;8.30;6.22;;;23.70;57.60;;;;;;5071388;28;20359;-58
2021/04/28 00:43:33;;;;;;;7.47;5.90;;;23.70;57.60;;;;;;5053163;28;20043;-58
2021/04/28 00:46:00;;;;;;;8.90;6.55;;;23.70;57.70;;;;;;5071821;28;20060;-58
2021/04/28 00:48:26;;;;;;;8.48;5.75;;;23.70;57.60;;;;;;5070645;28;20750;-57
2021/04/28 00:50:53;;;;;;;7.85;6.18;;;23.70;57.60;;;;;;5071924;28;20068;-58
2021/04/28 00:53:21;;;;;;;9.43;6.35;;;23.70;57.70;;;;;;5070728;28;20111;-58
2021/04/28 00:55:51;;;;;;;6.15;5.15;;;23.60;57.70;;;;;;5071751;28;20908;-57
2021/04/28 00:58:19;;;;;;;7.13;6.07;;;23.60;57.60;;;;;;5053669;28;20376;-58
2021/04/28 01:00:46;;;;;;;8.10;6.00;;;23.60;57.60;;;;;;5053324;28;20040;-58
2021/04/28 01:03:12;;;;;;;7.25;5.97;;;23.60;57.60;;;;;;5053875;28;20403;-57
2021/04/28 01:05:38;;;;;;;6.57;5.35;;;23.60;57.60;;;;;;5071865;28;20050;-58
2021/04/28 01:08:06;;;;;;;7.78;5.40;;;23.60;57.50;;;;;;5070164;28;20119;-58
2021/04/28 01:10:36;;;;;;;9.65;5.53;;;23.60;57.50;;;;;;5071513;28;20064;-57
2021/04/28 01:13:05;;;;;;;5.50;4.40;;;23.60;57.50;;;;;;5053728;28;20037;-57
2021/04/28 01:15:33;;;;;;;7.03;5.30;;;23.60;57.50;;;;;;5070679;28;20051;-58
2021/04/28 01:18:10;;;;;;;6.75;4.93;;;23.60;57.40;;;;;;5052942;28;20025;-58
2021/04/28 01:20:39;;;;;;;5.40;4.30;;;23.60;57.40;;;;;;5070792;28;20050;-57
2021/04/28 01:23:07;;;;;;;7.22;4.78;;;23.60;57.40;;;;;;5071700;28;20032;-58
2021/04/28 01:25:34;;;;;;;7.25;4.85;;;23.50;57.30;;;;;;5052620;28;20047;-58
2021/04/28 01:28:12;;;;;;;7.30;4.72;;;23.60;57.30;;;;;;5053192;28;20037;-58
2021/04/28 01:30:58;;;;;;;5.53;4.65;;;23.50;57.30;;;;;;5054064;28;20078;-57
2021/04/28 01:33:46;;;;;;;8.55;4.55;;;23.80;57.40;;;;;;5069653;28;20044;-58
2021/04/28 01:36:28;;;;;;;5.25;4.07;;;23.50;57.30;;;;;;5053077;28;20052;-58
2021/04/28 01:38:58;;;;;;;;;;;23.50;57.20;;;;;;5053411;28;20032;-58
2021/04/28 01:41:27;;;;;;;9.07;4.28;;;23.50;57.40;;;;;;5066427;28;19909;-58
2021/04/28 01:43:56;;;;;;;4.88;4.25;;;23.60;57.00;;;;;;5062345;28;20040;-58
2021/04/28 01:46:26;;;;;;;7.00;4.22;;;23.60;57.00;;;;;;5056475;28;20379;-58
2021/04/28 01:48:56;;;;;;;6.82;4.00;;;23.50;56.90;;;;;;5074075;28;20052;-58
2021/04/28 01:51:24;;;;;;;4.97;3.97;;;23.50;57.00;;;;;;5055300;28;20041;-57
2021/04/28 01:53:50;;;;;;;7.68;3.80;;;23.50;57.00;;;;;;5055367;28;20033;-58
2021/04/28 01:56:18;;;;;;;6.75;3.92;;;23.50;56.90;;;;;;5075424;28;20123;-58
2021/04/28 01:59:04;;;;;;;6.57;3.35;;;23.50;56.90;;;;;;5067909;28;20044;-57
2021/04/28 02:01:56;;;;;;;6.10;3.22;;;23.40;56.80;;;;;;5062795;28;20047;-58
2021/04/28 02:04:27;;;;;;;4.53;3.10;;;23.40;56.80;;;;;;5057765;28;20132;-58
2021/04/28 02:06:53;;;;;;;5.63;3.10;;;23.50;56.80;;;;;;5057514;28;20037;-57
2021/04/28 02:09:20;;;;;;;5.93;3.17;;;23.40;56.80;;;;;;5075212;28;20033;-58
2021/04/28 02:11:46;;;;;;;3.08;2.58;;;23.40;56.80;;;;;;5056036;28;20410;-58
2021/04/28 02:14:17;;;;;;;9.05;3.00;;;23.40;56.80;;;;;;5075458;28;20182;-57
2021/04/28 02:17:19;;;;;;;3.58;2.67;;;23.40;56.70;;;;;;5048407;28;20033;-58
2021/04/28 02:19:48;;;;;;;4.75;2.22;;;23.40;56.60;;;;;;5039648;28;20043;-58
2021/04/28 02:22:15;;;;;;;3.17;2.30;;;23.40;56.60;;;;;;5057272;28;20041;-58
2021/04/28 02:24:54;;;;;;;2.65;2.17;;;23.40;56.60;;;;;;5055825;28;20032;-58
2021/04/28 02:27:31;;;;;;;5.30;2.05;;;23.40;56.50;;;;;;5056312;28;20040;-58
2021/04/28 02:29:57;;;;;;;4.93;2.33;;;23.40;56.50;;;;;;5056857;28;20068;-58
2021/04/28 02:32:25;;;;;;;4.32;1.70;;;23.40;56.40;;;;;;5056724;28;20036;-58
2021/04/28 02:35:27;;;;;;;3.03;1.75;;;23.40;56.50;;;;;;5073342;28;20123;-58
2021/04/28 02:38:42;;;;;;;3.08;1.60;;;23.30;56.40;;;;;;5073143;28;20206;-58
2021/04/28 02:41:16;;;;;;;3.83;1.80;;;23.40;56.30;;;;;;5072696;28;20040;-58
2021/04/28 02:43:44;;;;;;;2.15;1.90;;;23.40;56.30;;;;;;5056634;28;20032;-58
2021/04/28 02:46:18;;;;;;;2.88;2.30;;;23.40;56.40;;;;;;5055658;28;20043;-58
2021/04/28 02:48:49;;;;;;;3.83;1.90;;;23.40;56.30;;;;;;5055519;28;20033;-58
2021/04/28 02:51:48;;;;;;;4.93;2.67;;;23.30;56.30;;;;;;5049959;28;20028;-57
2021/04/28 02:54:43;;;;;;;4.07;2.53;;;23.30;56.30;;;;;;5066521;28;20033;-58
2021/04/28 02:57:14;;;;;;;4.28;3.17;;;23.30;56.30;;;;;;5053533;28;20613;-58
2021/04/28 02:59:40;;;;;;;3.63;2.60;;;23.30;56.20;;;;;;5055933;28;20036;-57
2021/04/28 03:02:07;;;;;;;6.28;3.28;;;23.30;56.20;;;;;;5056280;28;20498;-57
2021/04/28 03:04:40;;;;;;;3.20;2.47;;;23.30;56.20;;;;;;5073027;28;20565;-58
2021/04/28 03:07:21;;;;;;;3.53;2.97;;;23.30;56.20;;;;;;5072126;28;20464;-58
2021/04/28 03:09:47;;;;;;;5.22;3.08;;;23.30;56.30;;;;;;5056156;28;20124;-58
2021/04/28 03:12:15;;;;;;;3.30;2.80;;;23.30;56.20;;;;;;5056128;28;20033;-58
2021/04/28 03:14:54;;;;;;;4.53;3.00;;;23.30;56.30;;;;;;5073179;28;20131;-58
2021/04/28 03:17:22;;;;;;;4.10;2.72;;;23.30;56.30;;;;;;5072544;28;20141;-58
2021/04/28 03:19:55;;;;;;;3.50;2.30;;;23.30;56.20;;;;;;5055884;28;20033;-58
2021/04/28 03:22:23;;;;;;;3.35;2.67;;;23.30;56.30;;;;;;5055438;28;20115;-58
2021/04/28 03:24:50;;;;;;;3.17;2.35;;;23.20;56.20;;;;;;5039327;28;20516;-58
2021/04/28 03:27:20;;;;;;;6.00;2.72;;;23.30;56.30;;;;;;5073593;28;20048;-58
2021/04/28 03:29:54;;;;;;;2.92;2.33;;;23.20;56.20;;;;;;5055229;28;20501;-58
2021/04/28 03:32:21;;;;;;;4.38;2.53;;;23.30;56.30;;;;;;5071288;28;20086;-56
2021/04/28 03:34:55;;;;;;;3.10;1.73;;;23.20;56.20;;;;;;5066989;28;20032;-57
2021/04/28 03:37:21;;;;;;;5.80;3.15;;;23.30;56.30;;;;;;5073531;28;20063;-56
2021/04/28 03:39:48;;;;;;;6.07;2.50;;;23.20;56.20;;;;;;5054139;28;20044;-56
2021/04/28 03:42:14;;;;;;;5.15;2.42;;;23.20;56.20;;;;;;5054206;28;20040;-57
2021/04/28 03:44:41;;;;;;;6.32;2.85;;;23.20;56.20;;;;;;5054065;28;20113;-56
2021/04/28 03:47:08;;;;;;;3.60;1.95;;;23.20;56.20;;;;;;5036187;28;20037;-56
2021/04/28 03:49:37;;;;;;;2.63;2.00;;;23.20;56.20;;;;;;5055373;28;20064;-56
2021/04/28 03:52:04;;;;;;;2.45;2.00;;;23.20;56.20;;;;;;5056124;28;20034;-56
2021/04/28 03:54:48;;;;;;;4.20;2.10;;;23.20;56.20;;;;;;5074048;28;20105;-56
2021/04/28 03:57:14;;;;;;;4.03;1.98;;;23.20;56.20;;;;;;5056135;28;20043;-57
2021/04/28 03:59:40;;;;;;;3.28;2.10;;;23.20;56.20;;;;;;5073828;28;20044;-56
2021/04/28 04:02:07;;;;;;;2.33;1.70;;;23.20;56.10;;;;;;5055793;28;20047;-56
2021/04/28 04:05:06;;;;;;;4.13;2.10;;;23.20;56.10;;;;;;5073453;28;20044;-56
2021/04/28 04:07:54;;;;;;;3.40;2.25;;;23.20;56.00;;;;;;5073378;28;20036;-57
2021/04/28 04:10:31;;;;;;;2.75;2.10;;;23.20;56.00;;;;;;5073742;28;20036;-56
2021/04/28 04:12:58;;;;;;;2.88;1.88;;;23.20;56.00;;;;;;5055614;28;20040;-57
2021/04/28 04:15:25;;;;;;;3.42;1.90;;;23.20;56.00;;;;;;5055539;28;20045;-57
2021/04/28 04:17:51;;;;;;;2.08;1.85;;;23.20;56.00;;;;;;5072083;28;20040;-58
2021/04/28 04:20:37;;;;;;;3.42;1.73;;;23.20;56.00;;;;;;5071117;28;20117;-57
2021/04/28 04:23:08;;;;;;;2.90;1.88;;;23.20;56.00;;;;;;5071965;28;20072;-57
2021/04/28 04:25:48;;;;;;;3.15;1.88;;;23.20;55.90;;;;;;5055858;28;20098;-58
2021/04/28 04:28:33;;;;;;;5.13;2.10;;;23.20;55.90;;;;;;5053899;28;20044;-58
2021/04/28 04:31:03;;;;;;;2.90;1.92;;;23.10;55.80;;;;;;5059830;28;20508;-60
2021/04/28 04:33:55;;;;;;;2.97;1.60;;;23.20;56.40;;;;;;5021587;28;20040;-57
2021/04/28 04:36:50;;;;;;;3.15;2.20;;;23.10;55.70;;;;;;4997736;28;20117;-56
2021/04/28 04:39:51;;;;;;;3.58;1.40;;;23.20;55.70;;;;;;4991602;28;20053;-57
2021/04/28 04:42:56;;;;;;;2.47;1.80;;;23.10;55.60;;;;;;4991679;28;20078;-57
2021/04/28 04:45:41;;;;;;;4.25;2.10;;;23.10;55.60;;;;;;4991389;28;20038;-57
2021/04/28 04:48:08;;;;;;;3.38;2.13;;;23.10;55.50;;;;;;4991154;28;20065;-57
2021/04/28 04:50:35;;;;;;;4.10;2.13;;;23.10;55.50;;;;;;4990360;28;20117;-57
2021/04/28 04:53:02;;;;;;;3.33;1.75;;;23.10;55.50;;;;;;4975153;28;20504;-57
2021/04/28 04:55:28;;;;;;;3.42;2.33;;;23.10;55.50;;;;;;5010157;28;20137;-57
2021/04/28 04:57:54;;;;;;;3.35;2.20;;;23.00;55.50;;;;;;5010389;28;20073;-57
2021/04/28 05:00:21;;;;;;;3.00;1.77;;;23.00;55.50;;;;;;5010645;28;20728;-57
2021/04/28 05:02:47;;;;;;;5.10;2.25;;;23.10;55.50;;;;;;5010839;28;20045;-57
2021/04/28 05:05:14;;;;;;;2.95;1.92;;;23.00;55.40;;;;;;5010657;28;20048;-57
2021/04/28 05:07:40;;;;;;;3.28;2.20;;;23.00;55.40;;;;;;5010932;28;20056;-57
2021/04/28 05:10:09;;;;;;;5.03;2.30;;;23.00;55.30;;;;;;5011035;28;20037;-57
2021/04/28 05:12:35;;;;;;;3.17;2.35;;;23.10;55.30;;;;;;5011609;28;20554;-58
2021/04/28 05:15:01;;;;;;;5.07;2.20;;;23.00;55.30;;;;;;5052450;28;20029;-56
2021/04/28 05:17:27;;;;;;;3.70;2.13;;;23.00;55.30;;;;;;5045824;28;20510;-57
2021/04/28 05:19:53;;;;;;;3.67;2.22;;;23.00;55.30;;;;;;5033511;28;20109;-57
2021/04/28 05:22:23;;;;;;;3.33;2.22;;;23.00;55.20;;;;;;5035358;28;20410;-57
2021/04/28 05:25:12;;;;;;;3.17;1.63;;;23.00;55.20;;;;;;5035907;28;20037;-56
2021/04/28 05:27:38;;;;;;;2.13;1.60;;;23.00;55.20;;;;;;5036227;28;20103;-58
2021/04/28 05:30:07;;;;;;;5.65;1.95;;;23.00;55.10;;;;;;5036029;28;20036;-58
2021/04/28 05:32:33;;;;;;;3.22;1.92;;;23.00;55.00;;;;;;5036061;28;20053;-58
2021/04/28 05:34:59;;;;;;;7.78;2.20;;;23.00;55.00;;;;;;5054608;28;20089;-58
2021/04/28 05:37:25;;;;;;;4.38;1.92;;;23.00;55.00;;;;;;5075653;28;20036;-58
2021/04/28 05:39:51;;;;;;;2.47;1.60;;;23.00;55.00;;;;;;5061719;28;20037;-58
2021/04/28 05:42:18;;;;;;;3.63;1.52;;;23.00;54.90;;;;;;5034854;28;20040;-58
2021/04/28 05:44:46;;;;;;;3.83;1.77;;;23.00;54.90;;;;;;5035842;28;20060;-58
2021/04/28 05:47:13;;;;;;;2.20;1.70;;;23.00;54.90;;;;;;5035721;28;20038;-58
2021/04/28 05:49:40;;;;;;;3.53;1.55;;;23.00;54.80;;;;;;5035631;28;20039;-58
2021/04/28 05:52:06;;;;;;;3.97;1.73;;;23.00;54.80;;;;;;5035461;28;20057;-58
2021/04/28 05:54:32;;;;;;;5.05;2.05;;;22.90;54.80;;;;;;5054408;28;20071;-57
2021/04/28 05:56:59;;;;;;;2.42;1.58;;;23.00;54.80;;;;;;5055755;28;20039;-58
2021/04/28 05:59:25;;;;;;;3.40;1.98;;;22.90;54.70;;;;;;5055037;28;20493;-58
2021/04/28 06:01:51;;;;;;;2.42;1.85;;;22.90;54.70;;;;;;5037328;28;20037;-58
2021/04/28 06:04:17;;;;;;;3.83;1.80;;;22.90;54.70;;;;;;5056407;28;20048;-58
2021/04/28 06:06:43;;;;;;;3.97;2.13;;;23.00;54.70;;;;;;5049833;28;20039;-59
2021/04/28 06:09:10;;;;;;;3.92;1.95;;;22.90;54.50;;;;;;5054998;28;20108;-58
2021/04/28 06:11:37;;;;;;;5.47;1.98;;;23.00;54.50;;;;;;5060244;28;20658;-57
2021/04/28 06:14:03;;;;;;;4.47;1.98;;;23.00;54.50;;;;;;5055029;28;20047;-57
2021/04/28 06:16:29;;;;;;;3.17;2.15;;;23.00;54.50;;;;;;5055089;28;20041;-57
2021/04/28 06:18:55;;;;;;;5.28;2.33;;;23.00;54.40;;;;;;5055298;28;20025;-55
2021/04/28 06:21:22;;;;;;;3.17;2.20;;;23.00;54.30;;;;;;5055198;28;20033;-55
2021/04/28 06:23:48;;;;;;;3.63;2.08;;;23.00;54.30;;;;;;5037477;28;20039;-55
2021/04/28 06:26:15;;;;;;;4.45;2.40;;;23.00;54.30;;;;;;5054026;28;20040;-55
2021/04/28 06:28:42;;;;;;;13.38;2.58;;;23.00;54.30;;;;;;5055098;28;20094;-55
2021/04/28 06:31:09;;;;;;;5.75;2.35;;;23.00;54.20;;;;;;5055171;28;20418;-55
2021/04/28 06:33:36;;;;;;;5.28;2.22;;;23.00;54.20;;;;;;5054523;28;20047;-54
2021/04/28 06:36:02;;;;;;;3.35;2.25;;;23.00;54.20;;;;;;5054447;28;20122;-55
2021/04/28 06:38:28;;;;;;;4.63;2.30;;;23.10;54.20;;;;;;5054952;28;20127;-55
2021/04/28 06:40:54;;;;;;;3.80;1.77;;;23.10;54.20;;;;;;5054692;28;20045;-54
2021/04/28 06:43:20;;;;;;;6.80;2.22;;;23.10;54.10;;;;;;5037400;28;20040;-56
2021/04/28 06:45:46;;;;;;;4.25;1.98;;;23.10;54.00;;;;;;5054931;28;20128;-55
2021/04/28 06:48:12;;;;;;;2.60;2.03;;;23.00;53.90;;;;;;5055322;28;20108;-56
2021/04/28 06:50:38;;;;;;;6.03;2.05;;;23.00;53.80;;;;;;5054603;28;20087;-59
2021/04/28 06:53:04;;;;;;;5.97;2.30;;;23.10;53.80;;;;;;5054568;28;20029;-60
2021/04/28 06:55:30;;;;;;;4.05;2.50;;;23.10;53.50;;;;;;5054722;28;20041;-61
2021/04/28 06:57:56;;;;;;;6.32;2.72;;;23.10;53.50;;;;;;5054683;28;20120;-60
2021/04/28 07:00:28;;;;;;;7.55;3.35;;;23.10;53.50;;;;;;5053995;28;20447;-60
2021/04/28 07:02:55;;;;;;;12.85;10.30;;;23.00;53.30;;;;;;5054404;28;20218;-60
2021/04/28 07:05:23;;;;;;;18.55;15.55;;;23.10;53.30;;;;;;5054242;28;20098;-61
2021/04/28 07:07:49;;;;;;;15.07;11.02;;;23.10;53.40;;;;;;5054414;28;20048;-60
2021/04/28 07:10:15;;;;;;;11.50;8.68;;;23.10;53.40;;;;;;5054239;28;20362;-61
2021/04/28 07:12:42;;;;;;;8.18;7.05;;;23.00;53.30;;;;;;5054284;28;20356;-60
2021/04/28 07:15:09;;;;;;;12.02;6.30;;;23.00;53.30;;;;;;5054009;28;20106;-61
2021/04/28 07:17:35;;;;;;;6.72;5.20;;;23.00;53.40;;;;;;5054022;28;20036;-61
2021/04/28 07:20:04;;;;;;;5.63;3.33;;;23.00;53.50;;;;;;5054124;28;20041;-61
2021/04/28 07:22:30;;;;;;;7.53;3.00;;;23.10;53.50;;;;;;5053879;28;20037;-62
2021/04/28 07:24:56;;;;;;;5.18;2.75;;;23.10;53.60;;;;;;5052409;28;20596;-59
2021/04/28 07:27:22;;;;;;;7.22;3.20;;;23.00;53.60;;;;;;5053941;28;20570;-59
2021/04/28 07:29:48;;;;;;;4.53;2.47;;;23.00;53.70;;;;;;5053906;28;20494;-58
2021/04/28 07:32:16;;;;;;;4.68;2.10;;;23.00;53.70;;;;;;5053745;28;20040;-58
2021/04/28 07:34:43;;;;;;;10.85;7.25;;;23.00;53.60;;;;;;5054153;28;20025;-57
2021/04/28 07:37:09;;;;;;;203.32;163.75;;;23.00;53.70;;;;;;5053580;28;20048;-72
2021/04/28 07:39:36;;;;;;;155.52;49.00;;;23.10;53.90;;;;;;5054115;28;20040;-72
2021/04/28 07:42:02;;;;;;;73.60;22.98;;;23.10;53.70;;;;;;5053226;28;20387;-73
2021/04/28 07:44:30;;;;;;;39.13;12.60;;;23.10;53.60;;;;;;5052435;28;20464;-75
2021/04/28 07:46:58;;;;;;;25.27;11.25;;;23.00;53.40;;;;;;5053921;28;20341;-74
2021/04/28 07:49:24;;;;;;;21.52;9.63;;;23.00;53.70;;;;;;5036391;28;20031;-76
2021/04/28 07:51:51;;;;;;;16.15;8.23;;;23.00;53.70;;;;;;5053952;28;20120;-74
2021/04/28 07:54:20;;;;;;;7.50;5.47;;;23.00;53.80;;;;;;5053850;28;20078;-76
2021/04/28 07:56:47;;;;;;;9.15;5.07;;;23.00;54.00;;;;;;5054035;28;20045;-76
2021/04/28 07:59:14;;;;;;;8.25;4.13;;;23.00;53.70;;;;;;5035852;28;20072;-76
2021/04/28 08:01:41;;;;;;;5.55;3.85;;;23.00;53.80;;;;;;5053767;28;20037;-74
2021/04/28 08:04:07;;;;;;;7.20;3.25;;;23.00;53.70;;;;;;5052194;28;20040;-75
2021/04/28 08:06:34;;;;;;;5.82;2.67;;;23.00;53.60;;;;;;5052223;28;20064;-76
2021/04/28 08:09:00;;;;;;;9.27;7.30;;;23.00;53.60;;;;;;5052035;28;20037;-75
2021/04/28 08:11:26;;;;;;;8.23;4.97;;;23.00;53.50;;;;;;5053603;28;20132;-75
2021/04/28 08:13:53;;;;;;;8.05;5.93;;;23.00;53.60;;;;;;5052066;28;20029;-75
2021/04/28 08:16:20;;;;;;;22.98;18.38;;;23.00;53.70;;;;;;5034203;28;20059;-75
2021/04/28 08:18:47;;;;;;;16.02;12.45;;;23.00;53.70;;;;;;5053017;28;20041;-76
2021/04/28 08:21:14;;;;;;;13.90;10.63;;;23.10;53.80;;;;;;5053282;28;20040;-76
2021/04/28 08:23:43;;;;;;;10.80;8.05;;;23.10;53.80;;;;;;5053397;28;20037;-76
2021/04/28 08:26:13;;;;;;;10.70;5.97;;;23.20;53.70;;;;;;5053305;28;20427;-76
2021/04/28 08:28:41;;;;;;;10.38;5.07;;;23.20;53.50;;;;;;5052998;28;20461;-76
2021/04/28 08:31:12;;;;;;;8.35;5.72;;;23.30;53.40;;;;;;5053034;28;20505;-75
2021/04/28 08:33:39;;;;;;;13.95;8.20;;;23.30;53.40;;;;;;5051789;28;20040;-74
2021/04/28 08:36:06;;;;;;;149.18;27.50;;;23.30;53.40;;;;;;5062864;28;20152;-75
2021/04/28 08:38:34;;;;;;;66.55;15.43;;;23.30;53.40;;;;;;5073189;28;20041;-76
2021/04/28 08:41:00;;;;;;;60.45;13.20;;;23.40;53.40;;;;;;5054897;28;20044;-76
2021/04/28 08:43:27;;;;;;;49.20;11.20;;;23.40;53.30;;;;;;5072764;28;20043;-77
2021/04/28 08:45:54;;;;;;;47.88;10.25;;;23.50;53.40;;;;;;5054715;28;20040;-76
2021/04/28 08:48:20;;;;;;;97.32;15.18;;;23.50;53.20;;;;;;5072780;28;20041;-76
2021/04/28 08:50:48;;;;;;;74.47;13.23;;;23.50;53.20;;;;;;5073113;28;20071;-75
2021/04/28 08:53:15;;;;;;;42.03;8.10;;;23.60;53.10;;;;;;5072292;28;20028;-68
2021/04/28 08:55:41;;;;;;;14.88;5.85;;;23.60;53.10;;;;;;5070801;28;20040;-68
2021/04/28 08:58:07;;;;;;;50.83;18.77;;;23.70;53.20;;;;;;5071825;28;20036;-68
2021/04/28 09:00:35;;;;;;;37.67;19.02;;;23.70;53.10;;;;;;5071911;28;20697;-69
2021/04/28 09:03:01;;;;;;;14.95;10.48;;;23.70;53.00;;;;;;5054152;28;20521;-68
2021/04/28 09:05:33;;;;;;;37.22;26.23;;;23.80;52.90;;;;;;5072033;28;20044;-68
2021/04/28 09:08:00;;;;;;;59.67;48.25;;;23.80;52.70;;;;;;5072532;28;20434;-68
2021/04/28 09:10:28;;;;;;;38.92;28.30;;;23.80;52.80;;;;;;5071864;28;20378;-69
2021/04/28 09:13:05;;;;;;;36.08;25.02;;;23.80;52.60;;;;;;5071898;28;20040;-69
2021/04/28 09:15:38;;;;;;;13.52;10.50;;;23.90;52.50;;;;;;5072119;28;20105;-68
2021/04/28 09:18:07;;;;;;;11.80;9.57;;;24.00;52.30;;;;;;5071967;28;20044;-68
2021/04/28 09:20:53;;;;;;;6.40;4.60;;;24.00;52.30;;;;;;5072085;28;20040;-68
2021/04/28 09:23:54;;;;;;;9.40;6.65;;;24.00;52.00;;;;;;5009792;28;20038;-67
2021/04/28 09:26:39;;;;;;;5.57;2.70;;;24.10;52.10;;;;;;5065466;28;20098;-68
2021/04/28 09:29:06;;;;;;;38.63;7.07;;;24.20;51.60;;;;;;5053510;28;20041;-69
2021/04/28 09:31:32;;;;;;;6.32;2.58;;;24.30;51.30;;;;;;5071056;28;20040;-68
2021/04/28 09:33:59;;;;;;;5.03;2.13;;;24.20;50.80;;;;;;5070880;28;20120;-68
2021/04/28 09:36:35;;;;;;;4.70;2.03;;;24.30;50.90;;;;;;5071123;28;20152;-68
2021/04/28 09:39:17;;;;;;;3.00;1.58;;;24.40;51.00;;;;;;5071093;28;20032;-68
2021/04/28 09:41:46;;;;;;;3.13;1.83;;;24.50;50.20;;;;;;5071308;28;20029;-69
2021/04/28 09:44:21;;;;;;;5.95;1.75;;;24.50;50.60;;;;;;5070945;28;20037;-69
2021/04/28 09:47:14;;;;;;;5.38;1.98;;;24.50;50.10;;;;;;5070038;28;20116;-59
2021/04/28 09:49:58;;;;;;;3.55;1.77;;;24.50;50.20;;;;;;5070093;28;20044;-60
2021/04/28 09:52:41;;;;;;;2.65;1.60;;;24.50;49.50;;;;;;5071132;28;20102;-66
2021/04/28 09:55:10;;;;;;;5.25;2.13;;;24.40;49.60;;;;;;5049543;28;20041;-69
2021/04/28 09:57:47;;;;;;;4.68;2.10;;;24.40;49.40;;;;;;5065806;28;20067;-65
2021/04/28 10:00:22;;;;;;;3.20;2.13;;;24.30;50.10;;;;;;5067918;28;20442;-65
2021/04/28 10:02:53;;;;;;;3.63;2.40;;;24.00;50.30;;;;;;5045208;28;20128;-64
2021/04/28 10:05:36;;;;;;;4.78;2.58;;;23.90;51.20;;;;;;5053754;28;20250;-65
2021/04/28 10:08:16;;;;;;;4.07;2.22;;;23.80;51.20;;;;;;5075685;28;20148;-65
2021/04/28 10:10:43;;;;;;;6.75;2.42;;;23.80;50.50;;;;;;5075485;28;20162;-65
2021/04/28 10:13:09;;;;;;;3.65;1.98;;;23.80;49.50;;;;;;5073626;28;20037;-64
2021/04/28 10:15:36;;;;;;;6.97;2.15;;;23.70;49.50;;;;;;5057133;28;20102;-65
2021/04/28 10:18:08;;;;;;;6.60;2.80;;;23.70;50.30;;;;;;5057413;28;20032;-62
2021/04/28 10:20:36;;;;;;;10.35;3.05;;;23.90;49.70;;;;;;5074761;28;20032;-58
2021/04/28 10:23:10;;;;;;;5.50;2.63;;;23.90;49.90;;;;;;5074482;28;20120;-72
2021/04/28 10:25:38;;;;;;;4.30;2.30;;;23.90;49.20;;;;;;5074723;28;20064;-68
2021/04/28 10:28:10;;;;;;;3.38;2.10;;;23.90;49.40;;;;;;5040708;28;20041;-66
2021/04/28 10:30:48;;;;;;;4.45;2.58;;;24.10;48.70;;;;;;5074590;28;20488;-64
2021/04/28 10:33:27;;;;;;;4.35;2.50;;;24.10;48.20;;;;;;5056794;28;20469;-63
2021/04/28 10:35:54;;;;;;;8.23;3.15;;;24.20;48.30;;;;;;5074575;28;20052;-71
2021/04/28 10:38:29;;;;;;;5.95;2.72;;;24.10;48.20;;;;;;5075331;28;20048;-82
2021/04/28 10:40:55;;;;;;;3.45;2.13;;;24.10;49.40;;;;;;5075288;28;20528;-79
2021/04/28 10:43:33;;;;;;;4.68;2.20;;;24.10;49.80;;;;;;5059131;28;20316;-77
2021/04/28 10:46:19;;;;;;;4.78;2.60;;;24.30;50.00;;;;;;5074200;28;20189;-67
2021/04/28 10:48:46;;;;;;;4.97;2.38;;;24.40;50.10;;;;;;5073947;28;20040;-75
2021/04/28 10:51:38;;;;;;;6.75;2.97;;;24.50;50.10;;;;;;5056262;28;20372;-58
2021/04/28 10:54:29;;;;;;;5.72;2.97;;;24.60;50.00;;;;;;5074713;28;20076;-59
2021/04/28 10:57:06;;;;;;;8.68;4.45;;;24.80;49.90;;;;;;5065012;28;20044;-58
2021/04/28 10:59:42;;;;;;;5.15;2.97;;;24.90;49.70;;;;;;5074932;28;20036;-59
2021/04/28 11:02:10;;;;;;;5.55;2.88;;;25.00;49.70;;;;;;5055653;28;20498;-59
2021/04/28 11:04:37;;;;;;;4.85;2.88;;;25.10;49.70;;;;;;5074587;28;20461;-59
2021/04/28 11:07:03;;;;;;;4.82;2.60;;;25.20;49.60;;;;;;5073758;28;20044;-61
2021/04/28 11:09:30;;;;;;;4.85;2.40;;;25.30;49.60;;;;;;5072620;28;20478;-61
2021/04/28 11:11:59;;;;;;;4.28;3.05;;;25.30;49.30;;;;;;5072458;28;20383;-64
2021/04/28 11:14:30;;;;;;;3.65;2.70;;;25.40;49.30;;;;;;5072727;28;20090;-60
2021/04/28 11:16:57;;;;;;;2.83;2.20;;;25.50;48.90;;;;;;5072053;28;20037;-61
2021/04/28 11:19:34;;;;;;;5.95;2.65;;;25.60;49.00;;;;;;5072910;28;20172;-60
2021/04/28 11:22:21;;;;;;;4.18;2.25;;;25.70;49.00;;;;;;5073145;28;20036;-60
2021/04/28 11:24:58;;;;;;;5.30;3.20;;;25.70;49.00;;;;;;5072912;28;20040;-60
2021/04/28 11:28:00;;;;;;;4.68;3.22;;;25.80;48.80;;;;;;5072880;28;20045;-59
2021/04/28 11:30:33;;;;;;;4.03;2.78;;;25.80;48.80;;;;;;5054774;28;20044;-60
2021/04/28 11:33:18;;;;;;;4.28;2.90;;;25.90;48.70;;;;;;5072697;28;20041;-59
2021/04/28 11:35:53;;;;;;;4.40;3.20;;;26.00;48.80;;;;;;5072672;28;20598;-60
2021/04/28 11:38:25;;;;;;;4.82;3.00;;;26.00;48.60;;;;;;5073169;28;20045;-60
2021/04/28 11:41:03;;;;;;;5.60;2.78;;;26.00;48.60;;;;;;5055112;28;20096;-60
2021/04/28 11:43:32;;;;;;;5.68;3.10;;;26.10;48.50;;;;;;5072849;28;20048;-60
2021/04/28 11:46:07;;;;;;;3.78;2.97;;;26.10;48.60;;;;;;5072872;28;20112;-60
2021/04/28 11:48:35;;;;;;;8.93;3.65;;;26.20;48.60;;;;;;5071990;28;20112;-60
2021/04/28 11:51:10;;;;;;;6.97;4.10;;;26.20;48.60;;;;;;5073063;28;20541;-59
2021/04/28 11:53:57;;;;;;;8.57;3.65;;;26.20;48.50;;;;;;5056405;28;20477;-60
2021/04/28 11:56:35;;;;;;;6.32;3.90;;;26.30;48.80;;;;;;5072919;28;20492;-59
2021/04/28 11:59:01;;;;;;;6.28;3.30;;;26.30;48.50;;;;;;5072743;28;20041;-58
2021/04/28 12:01:30;;;;;;;4.75;3.83;;;26.30;48.70;;;;;;5072628;28;20432;-60
2021/04/28 12:04:05;;;;;;;6.90;3.83;;;26.30;48.80;;;;;;5072916;28;20145;-60
2021/04/28 12:06:39;;;;;;;4.75;3.00;;;26.30;48.70;;;;;;5071577;28;20052;-59
2021/04/28 12:09:10;;;;;;;6.53;3.35;;;26.30;48.70;;;;;;5054150;28;20461;-59
2021/04/28 12:11:41;;;;;;;6.45;3.13;;;26.30;48.80;;;;;;5072302;28;20028;-59
2021/04/28 12:14:07;;;;;;;5.75;3.38;;;26.30;48.80;;;;;;5072419;28;20048;-59
2021/04/28 12:16:54;;;;;;;5.22;3.08;;;26.30;48.90;;;;;;5072307;28;20040;-60
2021/04/28 12:19:20;;;;;;;6.25;3.30;;;26.20;48.90;;;;;;5072434;28;20123;-60
2021/04/28 12:22:02;;;;;;;6.38;3.83;;;26.30;48.90;;;;;;5072136;28;20036;-58
2021/04/28 12:24:31;;;;;;;6.93;3.10;;;26.20;48.90;;;;;;5072086;28;20101;-59
2021/04/28 12:27:04;;;;;;;6.85;3.55;;;26.20;49.00;;;;;;5071867;28;20040;-60
2021/04/28 12:29:30;;;;;;;7.53;3.15;;;26.20;49.00;;;;;;5071499;28;20374;-60
2021/04/28 12:31:56;;;;;;;4.25;3.45;;;26.20;49.10;;;;;;5071686;28;20783;-60
2021/04/28 12:34:22;;;;;;;6.72;3.58;;;26.10;49.10;;;;;;5053696;28;20043;-60
2021/04/28 12:36:48;;;;;;;6.78;3.10;;;26.10;49.80;;;;;;5071429;28;20048;-60
2021/04/28 12:39:28;;;;;;;5.35;3.13;;;26.10;49.20;;;;;;5072138;28;20051;-60
2021/04/28 12:41:57;;;;;;;4.53;2.90;;;26.10;49.20;;;;;;5071514;28;20147;-60
2021/04/28 12:44:24;;;;;;;5.35;3.20;;;26.20;49.30;;;;;;5053715;28;20043;-60
2021/04/28 12:46:53;;;;;;;5.97;2.80;;;26.20;49.30;;;;;;5071793;28;20450;-61
2021/04/28 12:49:23;;;;;;;7.65;3.38;;;26.20;49.40;;;;;;5071888;28;20029;-59
2021/04/28 12:51:50;;;;;;;3.50;2.60;;;26.20;49.30;;;;;;5071670;28;20032;-60
2021/04/28 12:54:31;;;;;;;4.65;3.08;;;26.30;49.50;;;;;;5071471;28;20044;-61
2021/04/28 12:56:58;;;;;;;6.43;3.10;;;26.30;49.40;;;;;;5070151;28;20085;-60
2021/04/28 12:59:25;;;;;;;9.73;3.65;;;26.30;49.40;;;;;;5071528;28;20044;-61
2021/04/28 13:02:00;;;;;;;4.25;2.88;;;26.40;49.50;;;;;;5053790;28;20045;-60
2021/04/28 13:04:27;;;;;;;6.45;3.10;;;26.30;49.40;;;;;;5053656;28;20520;-60